sensor_id;sensor_type;location;lat;lon;timestamp;temperature;humidity
19110;DHT22;9687;50.836;12.060;2022-09-30T00:37:11;14.20;79.50
19110;DHT22;9687;50.836;12.060;2022-09-30T00:39:40;14.30;79.60
19110;DHT22;9687;50.836;12.060;2022-09-30T00:42:16;14.30;79.10
19110;DHT22;9687;50.836;12.060;2022-09-30T00:44:54;14.30;79.80
19110;DHT22;9687;50.836;12.060;2022-09-30T00:47:41;14.30;79.10
19110;DHT22;9687;50.836;12.060;2022-09-30T01:51:54;13.90;81.90
19110;DHT22;9687;50.836;12.060;2022-09-30T01:54:30;13.90;81.80
19110;DHT22;9687;50.836;12.060;2022-09-30T01:57:02;13.90;81.80
19110;DHT22;9687;50.836;12.060;2022-09-30T01:59:33;13.90;81.70
19110;DHT22;9687;50.836;12.060;2022-09-30T02:02:06;14.00;81.60
19110;DHT22;9687;50.836;12.060;2022-09-30T02:04:37;14.00;81.50
19110;DHT22;9687;50.836;12.060;2022-09-30T02:07:11;14.00;81.50
19110;DHT22;9687;50.836;12.060;2022-09-30T02:09:42;14.10;81.50
19110;DHT22;9687;50.836;12.060;2022-09-30T02:12:14;14.10;81.40
19110;DHT22;9687;50.836;12.060;2022-09-30T02:14:45;14.10;81.30
19110;DHT22;9687;50.836;12.060;2022-09-30T02:17:16;14.10;80.40
19110;DHT22;9687;50.836;12.060;2022-09-30T02:19:46;14.20;80.40
19110;DHT22;9687;50.836;12.060;2022-09-30T02:22:19;14.20;81.00
19110;DHT22;9687;50.836;12.060;2022-09-30T02:24:51;14.20;81.00
19110;DHT22;9687;50.836;12.060;2022-09-30T02:27:23;14.20;80.90
19110;DHT22;9687;50.836;12.060;2022-09-30T02:29:56;14.20;80.90
19110;DHT22;9687;50.836;12.060;2022-09-30T02:32:29;14.20;80.90
19110;DHT22;9687;50.836;12.060;2022-09-30T02:35:00;14.20;80.70
19110;DHT22;9687;50.836;12.060;2022-09-30T02:37:33;14.20;80.60
19110;DHT22;9687;50.836;12.060;2022-09-30T02:40:05;14.20;80.50
19110;DHT22;9687;50.836;12.060;2022-09-30T02:42:34;14.10;80.40
19110;DHT22;9687;50.836;12.060;2022-09-30T02:45:07;14.10;80.40
19110;DHT22;9687;50.836;12.060;2022-09-30T02:47:47;14.20;80.60
19110;DHT22;9687;50.836;12.060;2022-09-30T02:50:19;14.10;79.90
19110;DHT22;9687;50.836;12.060;2022-09-30T02:52:58;14.10;80.40
19110;DHT22;9687;50.836;12.060;2022-09-30T02:55:33;14.10;80.50
19110;DHT22;9687;50.836;12.060;2022-09-30T02:58:09;14.10;80.50
19110;DHT22;9687;50.836;12.060;2022-09-30T03:00:38;14.00;80.50
19110;DHT22;9687;50.836;12.060;2022-09-30T03:03:10;14.10;79.90
19110;DHT22;9687;50.836;12.060;2022-09-30T03:05:38;14.00;80.50
19110;DHT22;9687;50.836;12.060;2022-09-30T03:08:07;14.00;80.50
19110;DHT22;9687;50.836;12.060;2022-09-30T03:10:35;14.00;80.00
19110;DHT22;9687;50.836;12.060;2022-09-30T03:13:18;14.00;80.70
19110;DHT22;9687;50.836;12.060;2022-09-30T03:15:59;13.90;80.70
19110;DHT22;9687;50.836;12.060;2022-09-30T03:18:44;13.90;80.80
19110;DHT22;9687;50.836;12.060;2022-09-30T03:21:25;13.90;80.40
19110;DHT22;9687;50.836;12.060;2022-09-30T03:24:28;13.90;81.10
19110;DHT22;9687;50.836;12.060;2022-09-30T03:27:06;13.90;81.30
19110;DHT22;9687;50.836;12.060;2022-09-30T03:29:44;13.90;81.20
19110;DHT22;9687;50.836;12.060;2022-09-30T03:32:24;13.90;81.20
19110;DHT22;9687;50.836;12.060;2022-09-30T03:35:02;13.90;80.70
19110;DHT22;9687;50.836;12.060;2022-09-30T03:37:36;14.00;80.90
19110;DHT22;9687;50.836;12.060;2022-09-30T03:40:15;14.00;81.40
19110;DHT22;9687;50.836;12.060;2022-09-30T03:42:45;14.00;81.50
19110;DHT22;9687;50.836;12.060;2022-09-30T03:45:18;14.00;81.50
19110;DHT22;9687;50.836;12.060;2022-09-30T03:47:54;14.00;81.50
19110;DHT22;9687;50.836;12.060;2022-09-30T04:52:02;13.70;82.00
19110;DHT22;9687;50.836;12.060;2022-09-30T04:54:30;13.80;82.80
19110;DHT22;9687;50.836;12.060;2022-09-30T04:56:57;13.70;82.70
19110;DHT22;9687;50.836;12.060;2022-09-30T04:59:24;13.70;82.70
19110;DHT22;9687;50.836;12.060;2022-09-30T05:01:52;13.70;82.70
19110;DHT22;9687;50.836;12.060;2022-09-30T05:04:20;13.70;82.40
19110;DHT22;9687;50.836;12.060;2022-09-30T05:06:47;13.70;82.90
19110;DHT22;9687;50.836;12.060;2022-09-30T05:09:16;13.70;82.80
19110;DHT22;9687;50.836;12.060;2022-09-30T05:11:43;13.70;82.90
19110;DHT22;9687;50.836;12.060;2022-09-30T05:14:10;13.70;82.80
19110;DHT22;9687;50.836;12.060;2022-09-30T05:16:38;13.70;82.90
19110;DHT22;9687;50.836;12.060;2022-09-30T05:19:05;13.60;83.20
19110;DHT22;9687;50.836;12.060;2022-09-30T05:21:32;13.60;83.40
19110;DHT22;9687;50.836;12.060;2022-09-30T05:24:00;13.60;83.10
19110;DHT22;9687;50.836;12.060;2022-09-30T05:26:29;13.60;83.70
19110;DHT22;9687;50.836;12.060;2022-09-30T05:28:57;13.60;83.90
19110;DHT22;9687;50.836;12.060;2022-09-30T05:31:25;13.70;84.00
19110;DHT22;9687;50.836;12.060;2022-09-30T05:33:52;13.70;84.00
19110;DHT22;9687;50.836;12.060;2022-09-30T05:36:20;13.70;83.80
19110;DHT22;9687;50.836;12.060;2022-09-30T05:38:49;13.70;83.80
19110;DHT22;9687;50.836;12.060;2022-09-30T05:41:17;13.70;83.80
19110;DHT22;9687;50.836;12.060;2022-09-30T05:53:00;13.80;83.60
19110;DHT22;9687;50.836;12.060;2022-09-30T05:55:29;13.80;83.40
19110;DHT22;9687;50.836;12.060;2022-09-30T05:57:57;13.80;83.40
19110;DHT22;9687;50.836;12.060;2022-09-30T06:00:25;13.80;82.60
19110;DHT22;9687;50.836;12.060;2022-09-30T06:02:53;13.80;83.20
19110;DHT22;9687;50.836;12.060;2022-09-30T06:05:20;13.90;83.20
19110;DHT22;9687;50.836;12.060;2022-09-30T06:07:48;13.90;82.90
19110;DHT22;9687;50.836;12.060;2022-09-30T06:10:17;13.90;82.90
19110;DHT22;9687;50.836;12.060;2022-09-30T06:12:46;13.90;82.90
19110;DHT22;9687;50.836;12.060;2022-09-30T06:15:13;13.90;83.00
19110;DHT22;9687;50.836;12.060;2022-09-30T06:17:41;13.90;83.10
19110;DHT22;9687;50.836;12.060;2022-09-30T06:20:09;13.90;83.20
19110;DHT22;9687;50.836;12.060;2022-09-30T06:22:37;13.90;83.10
19110;DHT22;9687;50.836;12.060;2022-09-30T06:25:06;13.90;82.30
19110;DHT22;9687;50.836;12.060;2022-09-30T06:27:35;13.90;82.90
19110;DHT22;9687;50.836;12.060;2022-09-30T06:30:03;13.90;82.30
19110;DHT22;9687;50.836;12.060;2022-09-30T06:32:31;13.90;82.90
19110;DHT22;9687;50.836;12.060;2022-09-30T06:35:02;13.90;82.50
19110;DHT22;9687;50.836;12.060;2022-09-30T06:37:29;14.00;84.00
19110;DHT22;9687;50.836;12.060;2022-09-30T06:39:56;14.00;83.30
19110;DHT22;9687;50.836;12.060;2022-09-30T06:42:24;14.10;82.90
19110;DHT22;9687;50.836;12.060;2022-09-30T06:44:53;14.10;83.50
19110;DHT22;9687;50.836;12.060;2022-09-30T06:47:21;14.20;83.70
19110;DHT22;9687;50.836;12.060;2022-09-30T06:49:48;14.20;83.30
19110;DHT22;9687;50.836;12.060;2022-09-30T06:52:18;14.40;83.40
19110;DHT22;9687;50.836;12.060;2022-09-30T06:54:46;14.40;82.90
19110;DHT22;9687;50.836;12.060;2022-09-30T06:57:15;14.60;82.30
19110;DHT22;9687;50.836;12.060;2022-09-30T06:59:47;14.80;80.30
19110;DHT22;9687;50.836;12.060;2022-09-30T07:02:16;14.80;81.00
19110;DHT22;9687;50.836;12.060;2022-09-30T07:04:43;15.00;81.40
19110;DHT22;9687;50.836;12.060;2022-09-30T07:07:11;15.20;80.00
19110;DHT22;9687;50.836;12.060;2022-09-30T07:09:39;15.30;79.50
19110;DHT22;9687;50.836;12.060;2022-09-30T07:12:06;15.50;78.60
19110;DHT22;9687;50.836;12.060;2022-09-30T07:14:34;15.70;77.80
19110;DHT22;9687;50.836;12.060;2022-09-30T07:17:03;15.90;77.50
19110;DHT22;9687;50.836;12.060;2022-09-30T07:19:33;16.10;76.30
19110;DHT22;9687;50.836;12.060;2022-09-30T07:22:01;16.20;76.20
19110;DHT22;9687;50.836;12.060;2022-09-30T07:24:42;16.40;75.80
19110;DHT22;9687;50.836;12.060;2022-09-30T07:27:10;16.60;75.10
19110;DHT22;9687;50.836;12.060;2022-09-30T07:29:40;16.80;74.40
19110;DHT22;9687;50.836;12.060;2022-09-30T07:32:09;17.00;73.80
19110;DHT22;9687;50.836;12.060;2022-09-30T07:34:38;17.30;73.20
19110;DHT22;9687;50.836;12.060;2022-09-30T07:37:08;17.40;72.60
19110;DHT22;9687;50.836;12.060;2022-09-30T07:39:37;17.60;72.10
19110;DHT22;9687;50.836;12.060;2022-09-30T07:42:04;17.70;71.40
19110;DHT22;9687;50.836;12.060;2022-09-30T10:47:15;25.30;47.30
19110;DHT22;9687;50.836;12.060;2022-09-30T10:49:47;25.30;46.50
19110;DHT22;9687;50.836;12.060;2022-09-30T10:52:18;25.20;46.90
19110;DHT22;9687;50.836;12.060;2022-09-30T10:54:50;25.20;47.10
19110;DHT22;9687;50.836;12.060;2022-09-30T10:57:21;25.20;47.40
19110;DHT22;9687;50.836;12.060;2022-09-30T10:59:52;25.20;47.20
19110;DHT22;9687;50.836;12.060;2022-09-30T11:02:26;25.10;47.20
19110;DHT22;9687;50.836;12.060;2022-09-30T11:05:04;25.10;46.90
19110;DHT22;9687;50.836;12.060;2022-09-30T11:07:38;25.00;46.80
19110;DHT22;9687;50.836;12.060;2022-09-30T11:10:21;25.00;47.60
19110;DHT22;9687;50.836;12.060;2022-09-30T11:12:58;25.00;47.60
19110;DHT22;9687;50.836;12.060;2022-09-30T11:15:31;25.00;47.70
19110;DHT22;9687;50.836;12.060;2022-09-30T11:18:06;25.00;47.50
19110;DHT22;9687;50.836;12.060;2022-09-30T11:20:42;25.00;47.10
19110;DHT22;9687;50.836;12.060;2022-09-30T11:23:17;25.00;47.40
19110;DHT22;9687;50.836;12.060;2022-09-30T11:25:49;25.00;47.70
19110;DHT22;9687;50.836;12.060;2022-09-30T11:28:36;25.00;47.90
19110;DHT22;9687;50.836;12.060;2022-09-30T11:31:15;25.10;47.80
19110;DHT22;9687;50.836;12.060;2022-09-30T11:34:01;25.10;47.40
19110;DHT22;9687;50.836;12.060;2022-09-30T11:36:39;25.60;47.40
19110;DHT22;9687;50.836;12.060;2022-09-30T11:39:24;25.20;46.90
19110;DHT22;9687;50.836;12.060;2022-09-30T11:41:59;25.20;46.90
19110;DHT22;9687;50.836;12.060;2022-09-30T11:44:33;25.30;47.50
19110;DHT22;9687;50.836;12.060;2022-09-30T13:01:03;23.20;48.70
19110;DHT22;9687;50.836;12.060;2022-09-30T13:04:09;23.00;48.30
19110;DHT22;9687;50.836;12.060;2022-09-30T13:07:16;23.10;49.00
19110;DHT22;9687;50.836;12.060;2022-09-30T13:12:44;22.80;49.90
19110;DHT22;9687;50.836;12.060;2022-09-30T13:15:39;22.70;49.70
19110;DHT22;9687;50.836;12.060;2022-09-30T13:21:19;22.50;50.30
19110;DHT22;9687;50.836;12.060;2022-09-30T13:23:48;22.50;49.90
19110;DHT22;9687;50.836;12.060;2022-09-30T13:26:45;22.40;50.00
19110;DHT22;9687;50.836;12.060;2022-09-30T13:29:32;22.30;49.90
19110;DHT22;9687;50.836;12.060;2022-09-30T13:32:02;22.20;50.30
19110;DHT22;9687;50.836;12.060;2022-09-30T13:34:32;22.20;50.30
19110;DHT22;9687;50.836;12.060;2022-09-30T13:37:04;22.20;50.60
19110;DHT22;9687;50.836;12.060;2022-09-30T13:39:44;22.10;49.90
19110;DHT22;9687;50.836;12.060;2022-09-30T13:42:20;22.10;49.90
19110;DHT22;9687;50.836;12.060;2022-09-30T13:45:31;22.00;50.20
19110;DHT22;9687;50.836;12.060;2022-09-30T13:48:08;21.70;50.50
19110;DHT22;9687;50.836;12.060;2022-09-30T13:50:42;21.70;51.00
19110;DHT22;9687;50.836;12.060;2022-09-30T13:53:21;21.60;50.80
19110;DHT22;9687;50.836;12.060;2022-09-30T13:55:52;21.60;51.30
19110;DHT22;9687;50.836;12.060;2022-09-30T13:58:39;21.60;51.40
19110;DHT22;9687;50.836;12.060;2022-09-30T14:01:17;21.50;51.60
19110;DHT22;9687;50.836;12.060;2022-09-30T14:04:03;21.50;52.00
19110;DHT22;9687;50.836;12.060;2022-09-30T14:06:41;21.40;52.30
19110;DHT22;9687;50.836;12.060;2022-09-30T14:09:42;21.40;52.30
19110;DHT22;9687;50.836;12.060;2022-09-30T14:12:29;21.50;52.10
19110;DHT22;9687;50.836;12.060;2022-09-30T14:18:31;21.50;51.40
19110;DHT22;9687;50.836;12.060;2022-09-30T14:21:34;21.60;50.90
19110;DHT22;9687;50.836;12.060;2022-09-30T14:24:09;21.60;50.70
19110;DHT22;9687;50.836;12.060;2022-09-30T14:26:51;21.60;50.70
19110;DHT22;9687;50.836;12.060;2022-09-30T14:29:29;21.60;51.20
19110;DHT22;9687;50.836;12.060;2022-09-30T14:32:09;21.60;51.20
19110;DHT22;9687;50.836;12.060;2022-09-30T14:34:37;21.60;51.30
19110;DHT22;9687;50.836;12.060;2022-09-30T14:37:12;21.70;51.20
19110;DHT22;9687;50.836;12.060;2022-09-30T14:39:41;21.70;51.00
19110;DHT22;9687;50.836;12.060;2022-09-30T14:42:22;21.80;51.10
19110;DHT22;9687;50.836;12.060;2022-09-30T14:44:53;21.80;51.30
19110;DHT22;9687;50.836;12.060;2022-09-30T14:47:23;21.90;51.40
19110;DHT22;9687;50.836;12.060;2022-09-30T14:49:52;21.90;51.00
19110;DHT22;9687;50.836;12.060;2022-09-30T14:52:34;21.90;50.90
19110;DHT22;9687;50.836;12.060;2022-09-30T14:55:02;22.00;50.80
19110;DHT22;9687;50.836;12.060;2022-09-30T14:57:32;22.00;50.80
19110;DHT22;9687;50.836;12.060;2022-09-30T15:00:19;22.00;50.90
19110;DHT22;9687;50.836;12.060;2022-09-30T15:24:29;21.90;50.60
19110;DHT22;9687;50.836;12.060;2022-09-30T15:26:59;21.80;50.70
19110;DHT22;9687;50.836;12.060;2022-09-30T15:29:28;21.80;51.00
19110;DHT22;9687;50.836;12.060;2022-09-30T15:31:59;21.70;51.20
19110;DHT22;9687;50.836;12.060;2022-09-30T15:34:29;21.40;51.10
19110;DHT22;9687;50.836;12.060;2022-09-30T15:36:58;21.60;51.70
19110;DHT22;9687;50.836;12.060;2022-09-30T15:39:37;21.50;51.80
19110;DHT22;9687;50.836;12.060;2022-09-30T15:42:32;21.40;52.40
19110;DHT22;9687;50.836;12.060;2022-09-30T15:45:02;21.40;53.10
19110;DHT22;9687;50.836;12.060;2022-09-30T15:47:31;21.40;53.20
19110;DHT22;9687;50.836;12.060;2022-09-30T15:49:59;21.30;53.30
19110;DHT22;9687;50.836;12.060;2022-09-30T15:52:36;21.30;53.60
19110;DHT22;9687;50.836;12.060;2022-09-30T15:55:34;21.30;54.40
19110;DHT22;9687;50.836;12.060;2022-09-30T15:58:02;21.20;53.90
19110;DHT22;9687;50.836;12.060;2022-09-30T16:00:34;21.20;53.90
19110;DHT22;9687;50.836;12.060;2022-09-30T16:03:13;21.10;54.10
19110;DHT22;9687;50.836;12.060;2022-09-30T16:05:44;21.10;55.00
19110;DHT22;9687;50.836;12.060;2022-09-30T16:08:13;21.10;55.30
19110;DHT22;9687;50.836;12.060;2022-09-30T16:10:50;21.00;55.30
19110;DHT22;9687;50.836;12.060;2022-09-30T16:13:20;21.00;56.00
19110;DHT22;9687;50.836;12.060;2022-09-30T16:15:51;20.90;55.90
19110;DHT22;9687;50.836;12.060;2022-09-30T16:18:23;20.90;55.70
19110;DHT22;9687;50.836;12.060;2022-09-30T16:20:56;20.90;55.40
19110;DHT22;9687;50.836;12.060;2022-09-30T18:24:17;18.60;58.00
19110;DHT22;9687;50.836;12.060;2022-09-30T18:27:05;18.50;58.10
19110;DHT22;9687;50.836;12.060;2022-09-30T18:29:33;18.40;58.20
19110;DHT22;9687;50.836;12.060;2022-09-30T18:32:01;18.30;58.20
19110;DHT22;9687;50.836;12.060;2022-09-30T18:34:28;18.30;59.10
19110;DHT22;9687;50.836;12.060;2022-09-30T18:36:55;18.20;59.10
19110;DHT22;9687;50.836;12.060;2022-09-30T18:39:25;18.10;59.50
19110;DHT22;9687;50.836;12.060;2022-09-30T18:41:52;18.00;60.00
19110;DHT22;9687;50.836;12.060;2022-09-30T18:44:21;18.00;60.90
19110;DHT22;9687;50.836;12.060;2022-09-30T18:46:48;17.90;61.40
19110;DHT22;9687;50.836;12.060;2022-09-30T18:49:16;17.90;61.70
19110;DHT22;9687;50.836;12.060;2022-09-30T18:51:43;17.70;62.00
19110;DHT22;9687;50.836;12.060;2022-09-30T18:54:11;17.60;62.20
19110;DHT22;9687;50.836;12.060;2022-09-30T18:56:41;17.50;61.80
19110;DHT22;9687;50.836;12.060;2022-09-30T18:59:10;17.40;62.10
19110;DHT22;9687;50.836;12.060;2022-09-30T19:01:40;17.20;62.30
19110;DHT22;9687;50.836;12.060;2022-09-30T19:04:07;17.30;62.90
19110;DHT22;9687;50.836;12.060;2022-09-30T19:06:35;17.30;63.10
19110;DHT22;9687;50.836;12.060;2022-09-30T19:09:04;17.20;62.80
19110;DHT22;9687;50.836;12.060;2022-09-30T19:11:33;17.10;62.70
19110;DHT22;9687;50.836;12.060;2022-09-30T19:14:03;17.20;62.40
19110;DHT22;9687;50.836;12.060;2022-09-30T19:16:31;17.10;61.80
19110;DHT22;9687;50.836;12.060;2022-09-30T19:18:59;17.10;61.30
19110;DHT22;9687;50.836;12.060;2022-09-30T19:21:29;17.10;61.20
19110;DHT22;9687;50.836;12.060;2022-09-30T20:26:16;15.60;64.00
19110;DHT22;9687;50.836;12.060;2022-09-30T20:28:44;15.60;64.20
19110;DHT22;9687;50.836;12.060;2022-09-30T20:31:13;15.60;64.20
19110;DHT22;9687;50.836;12.060;2022-09-30T20:33:41;15.60;64.60
19110;DHT22;9687;50.836;12.060;2022-09-30T20:36:10;15.60;64.80
19110;DHT22;9687;50.836;12.060;2022-09-30T20:38:37;15.50;64.80
19110;DHT22;9687;50.836;12.060;2022-09-30T20:41:06;15.50;64.70
19110;DHT22;9687;50.836;12.060;2022-09-30T20:46:34;15.50;64.80
19110;DHT22;9687;50.836;12.060;2022-09-30T20:49:02;15.50;64.70
19110;DHT22;9687;50.836;12.060;2022-09-30T20:51:30;15.50;64.90
19110;DHT22;9687;50.836;12.060;2022-09-30T20:53:58;15.50;65.10
19110;DHT22;9687;50.836;12.060;2022-09-30T20:56:28;15.40;65.00
19110;DHT22;9687;50.836;12.060;2022-09-30T20:58:56;15.40;65.20
19110;DHT22;9687;50.836;12.060;2022-09-30T21:01:24;15.30;64.70
19110;DHT22;9687;50.836;12.060;2022-09-30T21:03:54;15.20;64.80
19110;DHT22;9687;50.836;12.060;2022-09-30T21:06:24;15.20;65.30
19110;DHT22;9687;50.836;12.060;2022-09-30T21:08:52;15.10;65.00
19110;DHT22;9687;50.836;12.060;2022-09-30T21:11:21;15.10;65.60
19110;DHT22;9687;50.836;12.060;2022-09-30T21:13:50;15.00;65.70
19110;DHT22;9687;50.836;12.060;2022-09-30T21:16:20;14.90;66.00
19110;DHT22;9687;50.836;12.060;2022-09-30T21:18:49;14.80;66.20
19110;DHT22;9687;50.836;12.060;2022-09-30T21:21:19;14.70;66.20
19110;DHT22;9687;50.836;12.060;2022-09-30T21:23:47;14.60;66.40
19110;DHT22;9687;50.836;12.060;2022-09-30T21:26:18;14.50;66.70
19110;DHT22;9687;50.836;12.060;2022-09-30T21:28:45;14.50;67.00
19110;DHT22;9687;50.836;12.060;2022-09-30T21:31:17;14.50;67.10
19110;DHT22;9687;50.836;12.060;2022-09-30T21:33:49;14.50;67.30
19110;DHT22;9687;50.836;12.060;2022-09-30T21:36:19;14.40;67.30
19110;DHT22;9687;50.836;12.060;2022-09-30T21:38:48;14.40;67.40
19110;DHT22;9687;50.836;12.060;2022-09-30T21:41:16;14.40;67.50
19110;DHT22;9687;50.836;12.060;2022-09-30T21:43:45;14.50;67.50
19110;DHT22;9687;50.836;12.060;2022-09-30T21:46:13;14.50;67.40
19110;DHT22;9687;50.836;12.060;2022-09-30T21:48:43;14.50;67.50
19110;DHT22;9687;50.836;12.060;2022-09-30T21:51:11;14.50;67.40
19110;DHT22;9687;50.836;12.060;2022-09-30T21:53:41;14.50;67.40
19110;DHT22;9687;50.836;12.060;2022-09-30T21:56:09;14.50;67.50
19110;DHT22;9687;50.836;12.060;2022-09-30T21:58:40;14.50;67.30
19110;DHT22;9687;50.836;12.060;2022-09-30T22:01:09;14.40;67.30
19110;DHT22;9687;50.836;12.060;2022-09-30T22:03:37;14.40;67.30
19110;DHT22;9687;50.836;12.060;2022-09-30T22:06:06;14.40;67.40
19110;DHT22;9687;50.836;12.060;2022-09-30T22:08:37;14.40;67.50
19110;DHT22;9687;50.836;12.060;2022-09-30T22:11:09;14.30;67.50
19110;DHT22;9687;50.836;12.060;2022-09-30T22:13:37;14.30;67.50
19110;DHT22;9687;50.836;12.060;2022-09-30T22:16:06;14.30;67.60
19110;DHT22;9687;50.836;12.060;2022-09-30T22:18:34;14.30;67.80
19110;DHT22;9687;50.836;12.060;2022-09-30T22:21:03;14.30;68.00
19110;DHT22;9687;50.836;12.060;2022-09-30T22:23:31;14.30;68.30
19110;DHT22;9687;50.836;12.060;2022-09-30T22:26:06;14.30;68.30
19110;DHT22;9687;50.836;12.060;2022-09-30T22:28:35;14.20;68.20
19110;DHT22;9687;50.836;12.060;2022-09-30T22:31:11;14.20;68.00
19110;DHT22;9687;50.836;12.060;2022-09-30T22:33:41;14.20;68.10
19110;DHT22;9687;50.836;12.060;2022-09-30T22:36:25;14.10;68.10
19110;DHT22;9687;50.836;12.060;2022-09-30T22:39:10;14.10;67.70
19110;DHT22;9687;50.836;12.060;2022-09-30T22:41:39;14.10;68.50
19110;DHT22;9687;50.836;12.060;2022-09-30T22:44:07;14.10;67.70
19110;DHT22;9687;50.836;12.060;2022-09-30T22:46:37;14.10;68.40
19110;DHT22;9687;50.836;12.060;2022-09-30T22:49:05;14.10;68.50
19110;DHT22;9687;50.836;12.060;2022-09-30T22:51:33;14.10;67.80
19110;DHT22;9687;50.836;12.060;2022-09-30T22:54:02;14.00;68.30
19110;DHT22;9687;50.836;12.060;2022-09-30T22:56:29;14.90;69.30
19110;DHT22;9687;50.836;12.060;2022-09-30T22:58:58;14.10;68.50
19110;DHT22;9687;50.836;12.060;2022-09-30T23:01:26;14.00;68.30
19110;DHT22;9687;50.836;12.060;2022-09-30T23:03:54;14.00;67.90
19110;DHT22;9687;50.836;12.060;2022-09-30T23:06:23;13.90;68.30
19110;DHT22;9687;50.836;12.060;2022-09-30T23:08:51;13.90;68.40
19110;DHT22;9687;50.836;12.060;2022-09-30T23:11:20;13.80;68.60
19110;DHT22;9687;50.836;12.060;2022-09-30T23:13:48;13.80;68.60
19110;DHT22;9687;50.836;12.060;2022-09-30T23:16:19;13.70;68.80
19110;DHT22;9687;50.836;12.060;2022-09-30T23:18:47;13.70;68.90
19110;DHT22;9687;50.836;12.060;2022-09-30T23:21:16;13.60;69.00
19110;DHT22;9687;50.836;12.060;2022-09-30T23:23:46;13.60;69.40
19110;DHT22;9687;50.836;12.060;2022-09-30T23:26:16;13.50;69.40
19110;DHT22;9687;50.836;12.060;2022-09-30T23:28:44;13.50;69.70
19110;DHT22;9687;50.836;12.060;2022-09-30T23:31:14;13.40;69.70
19110;DHT22;9687;50.836;12.060;2022-09-30T23:33:46;13.40;69.80
19110;DHT22;9687;50.836;12.060;2022-09-30T23:36:16;13.40;69.90
19110;DHT22;9687;50.836;12.060;2022-09-30T23:38:44;13.40;69.90
19110;DHT22;9687;50.836;12.060;2022-09-30T23:41:12;13.40;70.00
19110;DHT22;9687;50.836;12.060;2022-09-30T23:43:40;13.30;70.00
19110;DHT22;9687;50.836;12.060;2022-09-30T23:46:14;13.30;69.50
19110;DHT22;9687;50.836;12.060;2022-09-30T23:48:44;13.30;70.10
19110;DHT22;9687;50.836;12.060;2022-09-30T23:51:12;13.20;69.60
19110;DHT22;9687;50.836;12.060;2022-09-30T23:53:40;13.20;70.20
19110;DHT22;9687;50.836;12.060;2022-09-30T23:56:10;13.20;70.30
19110;DHT22;9687;50.836;12.060;2022-09-30T23:58:37;13.10;69.90
